createdAt,value
2023-02-01T00:02:08.273Z,100068.53
2023-02-01T00:07:07.724Z,100077.06
2023-02-01T00:12:06.783Z,100069.06
2023-02-01T00:17:07.729Z,100095.22
2023-02-01T00:22:06.604Z,100091.13
2023-02-01T00:27:05.635Z,100089.47
2023-02-01T00:32:04.767Z,100092.59
2023-02-01T00:37:03.554Z,100103.47
2023-02-01T00:42:03.293Z,100101.63
2023-02-01T00:47:02.606Z,100100.81
2023-02-01T00:52:01.651Z,100102.44
2023-02-01T00:57:00.622Z,100105.94
2023-02-01T01:01:59.474Z,100111.34
2023-02-01T01:06:58.429Z,100119.81
2023-02-01T01:11:57.256Z,100112.38
2023-02-01T01:16:56.152Z,100103.88
2023-02-01T01:21:55.204Z,100103.06
2023-02-01T01:26:54.318Z,100099.16
2023-02-01T01:31:53.537Z,100109.50
2023-02-01T01:36:52.441Z,100100.59
2023-02-01T01:41:51.380Z,100098.72
2023-02-01T01:46:55.609Z,100089.63
2023-02-01T01:52:00.374Z,100096.13
2023-02-01T01:57:03.871Z,100098.97
2023-02-01T02:02:04.143Z,100083.25
2023-02-01T02:07:26.416Z,100084.72
2023-02-01T02:12:25.526Z,100088.25
2023-02-01T02:17:37.361Z,100081.44
2023-02-01T02:23:01.421Z,100070.22
2023-02-01T02:28:31.103Z,100068.03
2023-02-01T02:33:38.896Z,100075.78
2023-02-01T02:38:56.461Z,100055.16
2023-02-01T02:44:18.558Z,100052.91
2023-02-01T02:49:24.030Z,100054.56
2023-02-01T02:54:47.601Z,100053.06
2023-02-01T03:00:07.652Z,100054.16
2023-02-01T03:05:06.876Z,100056.47
2023-02-01T03:10:11.210Z,100063.88
2023-02-01T03:15:13.804Z,100065.16
2023-02-01T03:20:21.028Z,100061.81
2023-02-01T03:25:26.710Z,100071.06
2023-02-01T03:30:46.565Z,100070.50
2023-02-01T03:36:11.120Z,100062.44
2023-02-01T03:41:13.792Z,100050.19
2023-02-01T03:46:20.215Z,100059.38
2023-02-01T03:51:21.750Z,100057.13
2023-02-01T03:56:23.072Z,100058.16
2023-02-01T04:01:22.163Z,100042.63
2023-02-01T04:06:21.456Z,100043.25
2023-02-01T04:11:20.763Z,100031.56
2023-02-01T04:16:19.707Z,100023.97
2023-02-01T04:21:18.757Z,100026.97
2023-02-01T04:26:17.963Z,100011.50
2023-02-01T04:31:18.364Z,100008.63
2023-02-01T04:36:20.926Z,100002.66
2023-02-01T04:41:21.018Z,100006.13
2023-02-01T04:46:20.087Z,99998.25
2023-02-01T04:51:19.262Z,99992.22
2023-02-01T04:56:17.997Z,99984.03
2023-02-01T05:01:17.014Z,99978.63
2023-02-01T05:06:15.821Z,99975.97
2023-02-01T05:11:33.235Z,99950.16
2023-02-01T05:16:32.313Z,99955.47
2023-02-01T05:21:31.445Z,99944.13
2023-02-01T05:26:30.340Z,99943.59
2023-02-01T05:31:29.440Z,99931.38
2023-02-01T05:36:28.443Z,99919.59
2023-02-01T05:41:27.289Z,99904.91
2023-02-01T05:46:26.452Z,99928.56
2023-02-01T05:51:25.427Z,99928.41
2023-02-01T05:56:24.155Z,99934.97
2023-02-01T06:01:23.035Z,99929.38
2023-02-01T06:06:40.453Z,99928.84
2023-02-01T06:11:41.327Z,99933.78
2023-02-01T06:16:40.179Z,99943.97
2023-02-01T06:21:39.146Z,99935.16
2023-02-01T06:26:38.434Z,99938.28
2023-02-01T06:31:37.367Z,99914.72
2023-02-01T06:36:39.608Z,99928.19
2023-02-01T06:41:39.899Z,99932.03
2023-02-01T06:46:38.830Z,99937.41
2023-02-01T06:51:37.682Z,99920.13
2023-02-01T06:56:36.504Z,99921.50
2023-02-01T07:01:35.309Z,99902.44
2023-02-01T07:06:34.261Z,99907.03
2023-02-01T07:11:33.453Z,99908.97
2023-02-01T07:16:32.511Z,99919.00
2023-02-01T07:21:31.426Z,99897.97
2023-02-01T07:26:30.193Z,99908.34
2023-02-01T07:31:30.096Z,99911.16
2023-02-01T07:36:29.023Z,99902.38
2023-02-01T07:41:27.965Z,99899.19
2023-02-01T07:46:27.063Z,99883.50
2023-02-01T07:51:26.124Z,99881.50
2023-02-01T07:56:26.372Z,99881.38
2023-02-01T08:01:27.911Z,99881.19
2023-02-01T08:06:28.297Z,99876.53
2023-02-01T08:11:27.198Z,99879.47
2023-02-01T08:16:26.631Z,99872.56
2023-02-01T08:21:37.555Z,99873.81
2023-02-01T08:26:37.131Z,99867.97
2023-02-01T08:31:36.633Z,99860.13
2023-02-01T08:36:36.377Z,99852.13
2023-02-01T08:41:35.700Z,99830.00
2023-02-01T08:46:35.068Z,99821.16
2023-02-01T08:51:33.968Z,99813.44
2023-02-01T08:56:32.732Z,99831.81
2023-02-01T09:01:31.745Z,99830.34
2023-02-01T09:06:31.294Z,99824.16
2023-02-01T09:11:30.211Z,99838.63
2023-02-01T09:16:28.959Z,99836.75
2023-02-01T09:21:28.177Z,99848.97
2023-02-01T09:26:32.684Z,99835.97
2023-02-01T09:31:32.234Z,99834.66
2023-02-01T09:36:31.381Z,99827.28
2023-02-01T09:41:49.042Z,99822.38
2023-02-01T09:46:48.356Z,99843.50
2023-02-01T09:51:50.775Z,99860.88
2023-02-01T09:57:04.638Z,99868.44
2023-02-01T10:02:06.655Z,99869.69
2023-02-01T10:07:31.149Z,99874.69
2023-02-01T10:12:59.403Z,99894.06
2023-02-01T10:18:13.595Z,99892.41
2023-02-01T10:23:31.492Z,99898.19
2023-02-01T10:28:37.472Z,99906.00
2023-02-01T10:33:47.560Z,99896.94
2023-02-01T10:38:47.495Z,99889.53
2023-02-01T10:43:50.327Z,99895.69
2023-02-01T10:48:52.052Z,99896.69
2023-02-01T10:53:56.128Z,99910.91
2023-02-01T10:59:25.360Z,99890.66
2023-02-01T11:04:27.611Z,99901.03
2023-02-01T11:09:26.725Z,99898.63
2023-02-01T11:14:25.951Z,99908.03
2023-02-01T11:19:25.248Z,99908.41
2023-02-01T11:24:36.648Z,99911.19
2023-02-01T11:29:45.375Z,99911.19
2023-02-01T11:34:48.759Z,99905.69
2023-02-01T11:39:57.961Z,99896.59
2023-02-01T11:45:26.399Z,99883.31
2023-02-01T11:50:38.760Z,99874.56
2023-02-01T11:55:41.209Z,99879.44
2023-02-01T12:01:16.624Z,99867.28
2023-02-01T12:06:32.286Z,99864.50
2023-02-01T12:11:31.233Z,99861.16
2023-02-01T12:16:42.143Z,99855.78
2023-02-01T12:21:47.340Z,99857.81
2023-02-01T12:27:23.652Z,99859.38
2023-02-01T12:32:41.379Z,99840.72
2023-02-01T12:37:55.733Z,99831.47
2023-02-01T12:43:03.457Z,99836.00
2023-02-01T12:48:19.971Z,99839.91
2023-02-01T12:53:39.325Z,99829.00
2023-02-01T12:58:46.533Z,99836.75
2023-02-01T13:03:58.724Z,99828.06
2023-02-01T13:09:26.694Z,99820.31
2023-02-01T13:14:40.527Z,99825.09
2023-02-01T13:20:05.907Z,99826.78
2023-02-01T13:25:09.865Z,99820.81
2023-02-01T13:30:32.152Z,99820.13
2023-02-01T13:35:46.606Z,99817.56
2023-02-01T13:41:00.128Z,99821.81
2023-02-01T13:46:06.846Z,99810.59
2023-02-01T13:51:06.370Z,99793.56
2023-02-01T13:56:12.517Z,99791.81
2023-02-01T14:01:23.869Z,99794.53
2023-02-01T14:06:27.276Z,99790.63
2023-02-01T14:11:39.272Z,99799.16
2023-02-01T14:16:38.091Z,99797.53
2023-02-01T14:21:49.851Z,99783.41
2023-02-01T14:26:51.519Z,99786.94
2023-02-01T14:32:24.215Z,99776.94
2023-02-01T14:37:25.397Z,99775.41
2023-02-01T14:42:42.982Z,99778.56
2023-02-01T14:47:42.355Z,99761.88
2023-02-01T14:52:46.799Z,99768.66
2023-02-01T14:57:49.791Z,99780.16
2023-02-01T15:02:50.834Z,99784.63
2023-02-01T15:07:51.087Z,99789.41
2023-02-01T15:12:51.334Z,99775.69
2023-02-01T15:17:58.599Z,99767.22
2023-02-01T15:23:02.540Z,99770.88
2023-02-01T15:28:01.638Z,99764.53
2023-02-01T15:33:15.852Z,99753.91
2023-02-01T15:38:30.852Z,99747.63
2023-02-01T15:43:40.929Z,99718.88
2023-02-01T15:48:55.498Z,99696.88
2023-02-01T15:53:59.229Z,99693.53
2023-02-01T15:59:02.375Z,99700.66
2023-02-01T16:04:13.930Z,99702.53
2023-02-01T16:09:14.946Z,99699.50
2023-02-01T16:14:14.151Z,99695.69
2023-02-01T16:19:13.117Z,99677.41
2023-02-01T16:24:12.281Z,99654.34
2023-02-01T16:29:11.363Z,99659.56
2023-02-01T16:34:18.118Z,99652.22
2023-02-01T16:39:17.066Z,99640.13
2023-02-01T16:44:16.376Z,99652.56
2023-02-01T16:49:26.185Z,99676.06
2023-02-01T16:54:25.094Z,99690.38
2023-02-01T16:59:24.126Z,99681.31
2023-02-01T17:04:23.009Z,99717.66
2023-02-01T17:09:21.878Z,99775.56
2023-02-01T17:14:22.647Z,99817.56
2023-02-01T17:19:26.207Z,99778.66
2023-02-01T17:24:33.261Z,99724.63
2023-02-01T17:29:36.552Z,99754.84
2023-02-01T17:34:35.558Z,99766.13
2023-02-01T17:39:52.905Z,99760.38
2023-02-01T17:44:57.124Z,99792.88
2023-02-01T17:49:57.047Z,99787.75
2023-02-01T17:54:55.945Z,99775.78
2023-02-01T17:59:55.086Z,99789.38
2023-02-01T18:04:54.012Z,99799.03
2023-02-01T18:09:52.844Z,99815.06
2023-02-01T18:14:51.892Z,99824.72
2023-02-01T18:19:50.706Z,99832.53
2023-02-01T18:24:49.548Z,99823.28
2023-02-01T18:29:48.315Z,99823.06
2023-02-01T18:34:50.428Z,99828.19
2023-02-01T18:39:50.474Z,99817.28
2023-02-01T18:44:49.239Z,99829.44
2023-02-01T18:49:48.099Z,99832.31
2023-02-01T18:54:58.768Z,99829.00
2023-02-01T18:59:58.617Z,99825.94
2023-02-01T19:04:57.790Z,99820.34
2023-02-01T19:09:56.710Z,99814.19
2023-02-01T19:14:55.615Z,99832.09
2023-02-01T19:19:54.572Z,99817.22
2023-02-01T19:24:54.590Z,99814.56
2023-02-01T19:29:53.507Z,99811.28
2023-02-01T19:34:52.316Z,99824.66
2023-02-01T19:39:51.146Z,99826.47
2023-02-01T19:44:50.012Z,99836.56
2023-02-01T19:49:49.814Z,99835.91
2023-02-01T19:54:49.077Z,99835.31
2023-02-01T19:59:47.934Z,99838.84
2023-02-01T20:04:45.863Z,99831.56
2023-02-01T20:09:44.625Z,99831.53
2023-02-01T20:14:46.517Z,99836.72
2023-02-01T20:19:45.442Z,99842.88
2023-02-01T20:24:44.243Z,99846.78
2023-02-01T20:29:44.181Z,99848.00
2023-02-01T20:34:42.941Z,99865.00
2023-02-01T20:39:41.963Z,99883.94
2023-02-01T20:44:41.060Z,99896.34
2023-02-01T20:49:40.829Z,99893.66
2023-02-01T20:54:40.247Z,99894.91
2023-02-01T20:59:39.009Z,99901.91
2023-02-01T21:04:37.864Z,99885.00
2023-02-01T21:09:40.713Z,99878.22
2023-02-01T21:14:39.484Z,99887.06
2023-02-01T21:19:44.192Z,99889.75
2023-02-01T21:24:43.015Z,99895.69
2023-02-01T21:29:41.773Z,99892.81
2023-02-01T21:34:40.528Z,99893.25
2023-02-01T21:39:39.209Z,99895.31
2023-02-01T21:44:37.951Z,99891.16
2023-02-01T21:49:36.761Z,99899.59
2023-02-01T21:54:36.069Z,99885.41
2023-02-01T21:59:36.114Z,99899.63
2023-02-01T22:04:35.477Z,99901.25
2023-02-01T22:09:34.595Z,99908.44
2023-02-01T22:14:33.601Z,99910.94
2023-02-01T22:19:32.510Z,99905.34
2023-02-01T22:24:31.274Z,99905.38
2023-02-01T22:29:30.143Z,99910.50
2023-02-01T22:34:28.908Z,99904.09
2023-02-01T22:39:27.739Z,99899.75
2023-02-01T22:44:26.910Z,99914.63
2023-02-01T22:49:25.687Z,99913.38
2023-02-01T22:54:24.389Z,99904.72
2023-02-01T22:59:23.532Z,99909.06
2023-02-01T23:04:22.255Z,99900.19
2023-02-01T23:09:24.739Z,99910.03
2023-02-01T23:14:23.767Z,99910.47
2023-02-01T23:19:22.561Z,99926.50
2023-02-01T23:24:21.283Z,99910.84
2023-02-01T23:29:20.014Z,99911.47
2023-02-01T23:34:18.722Z,99912.47
2023-02-01T23:39:17.534Z,99919.50
2023-02-01T23:44:16.310Z,99929.34
2023-02-01T23:49:16.580Z,99932.91
2023-02-01T23:54:15.371Z,99927.53
2023-02-01T23:59:16.599Z,99928.16
